createdAt,value
2018-02-21T00:00:00.338Z,99.99
2018-02-21T00:01:00.762Z,99.99
2018-02-21T00:02:01.167Z,99.99
2018-02-21T00:03:01.595Z,99.99
2018-02-21T00:04:02.018Z,99.99
2018-02-21T00:05:02.440Z,99.99
2018-02-21T00:06:02.852Z,99.99
2018-02-21T00:07:03.267Z,99.99
2018-02-21T00:08:03.685Z,99.99
2018-02-21T00:09:04.101Z,99.99
2018-02-21T00:10:04.526Z,99.99
2018-02-21T00:11:04.937Z,99.99
2018-02-21T00:12:05.354Z,99.99
2018-02-21T00:13:05.776Z,99.99
2018-02-21T00:14:06.189Z,99.99
2018-02-21T00:15:06.608Z,99.99
2018-02-21T00:16:07.029Z,99.99
2018-02-21T00:17:07.446Z,99.99
2018-02-21T00:18:07.862Z,99.99
2018-02-21T00:19:08.280Z,99.99
2018-02-21T00:20:08.699Z,99.99
2018-02-21T00:21:09.116Z,99.99
2018-02-21T00:22:09.530Z,99.99
2018-02-21T00:23:09.949Z,99.99
2018-02-21T00:24:10.367Z,99.99
2018-02-21T00:25:10.794Z,99.99
2018-02-21T00:26:11.207Z,99.99
2018-02-21T00:27:11.625Z,99.99
2018-02-21T00:28:12.046Z,99.99
2018-02-21T00:29:12.462Z,99.99
2018-02-21T00:30:12.873Z,99.99
2018-02-21T00:31:13.291Z,99.99
2018-02-21T00:32:13.713Z,99.99
2018-02-21T00:33:14.131Z,99.99
2018-02-21T00:34:14.547Z,99.99
2018-02-21T00:35:14.965Z,99.99
2018-02-21T00:36:15.383Z,99.99
2018-02-21T00:37:15.802Z,99.99
2018-02-21T00:38:16.218Z,99.99
2018-02-21T00:39:16.636Z,99.99
2018-02-21T00:40:17.055Z,99.99
2018-02-21T00:41:17.470Z,99.99
2018-02-21T00:42:17.889Z,99.99
2018-02-21T00:43:18.307Z,99.99
2018-02-21T00:44:18.731Z,99.99
2018-02-21T00:45:19.148Z,99.99
2018-02-21T00:46:19.564Z,99.99
2018-02-21T00:47:19.983Z,99.99
2018-02-21T00:48:20.402Z,99.99
2018-02-21T00:49:20.816Z,99.99
2018-02-21T00:50:21.232Z,99.99
2018-02-21T00:51:21.660Z,99.99
2018-02-21T00:52:22.067Z,99.99
2018-02-21T00:53:22.488Z,99.99
2018-02-21T00:54:22.907Z,99.99
2018-02-21T00:55:23.319Z,99.99
2018-02-21T00:56:23.738Z,99.99
2018-02-21T00:57:24.159Z,99.99
2018-02-21T00:58:24.576Z,99.99
2018-02-21T00:59:25.012Z,99.99
2018-02-21T01:00:25.414Z,99.99
2018-02-21T01:01:25.835Z,99.99
2018-02-21T01:02:26.244Z,99.99
2018-02-21T01:03:26.657Z,99.99
2018-02-21T01:04:27.077Z,99.99
2018-02-21T01:05:27.497Z,99.99
2018-02-21T01:06:27.914Z,99.99
2018-02-21T01:07:28.333Z,99.99
2018-02-21T01:08:28.751Z,99.99
2018-02-21T01:09:29.169Z,99.99
2018-02-21T01:10:29.590Z,99.99
2018-02-21T01:11:30.010Z,99.99
2018-02-21T01:12:30.422Z,99.99
2018-02-21T01:13:30.838Z,99.99
2018-02-21T01:14:31.255Z,99.99
2018-02-21T01:15:31.676Z,99.99
2018-02-21T01:16:32.093Z,99.99
2018-02-21T01:17:32.506Z,99.99
2018-02-21T01:18:32.925Z,99.99
2018-02-21T01:19:33.339Z,99.99
2018-02-21T01:20:33.756Z,99.99
2018-02-21T01:21:34.178Z,99.99
2018-02-21T01:22:34.603Z,99.99
2018-02-21T01:23:35.014Z,99.99
2018-02-21T01:24:35.430Z,99.99
2018-02-21T01:25:35.848Z,99.99
2018-02-21T01:26:36.264Z,99.99
2018-02-21T01:27:36.685Z,99.99
2018-02-21T01:28:37.103Z,99.99
2018-02-21T01:29:37.519Z,99.99
2018-02-21T01:30:37.934Z,99.99
2018-02-21T01:31:38.352Z,99.99
2018-02-21T01:32:38.776Z,99.99
2018-02-21T01:33:39.193Z,99.99
2018-02-21T01:34:39.608Z,99.99
2018-02-21T01:35:40.023Z,99.99
2018-02-21T01:36:40.446Z,99.99
2018-02-21T01:37:40.862Z,99.99
2018-02-21T01:38:41.275Z,99.99
2018-02-21T01:39:41.692Z,99.99
2018-02-21T01:40:42.110Z,99.99
2018-02-21T01:41:42.531Z,99.99
2018-02-21T01:42:42.946Z,99.99
2018-02-21T01:43:43.365Z,99.99
2018-02-21T01:44:43.783Z,99.99
2018-02-21T01:45:44.202Z,99.99
2018-02-21T01:46:44.618Z,99.99
2018-02-21T01:47:45.035Z,99.99
2018-02-21T01:48:45.450Z,99.99
2018-02-21T01:49:45.869Z,99.99
2018-02-21T01:50:46.286Z,99.99
2018-02-21T01:51:46.706Z,99.99
2018-02-21T01:52:47.125Z,99.99
2018-02-21T01:53:47.540Z,99.99
2018-02-21T01:54:47.956Z,99.99
2018-02-21T01:55:48.371Z,99.99
2018-02-21T01:56:49.565Z,99.99
2018-02-21T01:57:49.213Z,99.99
2018-02-21T01:58:49.634Z,99.99
2018-02-21T01:59:50.050Z,99.99
2018-02-21T02:00:50.468Z,99.99
2018-02-21T02:01:50.884Z,99.99
2018-02-21T02:02:51.299Z,99.99
2018-02-21T02:03:51.715Z,99.99
2018-02-21T02:04:52.132Z,99.99
2018-02-21T02:05:52.549Z,99.99
2018-02-21T02:06:52.975Z,99.99
2018-02-21T02:07:53.384Z,99.99
2018-02-21T02:08:53.803Z,99.99
2018-02-21T02:09:54.219Z,99.99
2018-02-21T02:10:54.635Z,99.99
2018-02-21T02:11:55.055Z,99.99
2018-02-21T02:12:55.471Z,99.99
2018-02-21T02:13:55.891Z,99.99
2018-02-21T02:14:56.310Z,99.99
2018-02-21T02:15:56.722Z,99.99
2018-02-21T02:16:57.141Z,99.99
2018-02-21T02:17:57.558Z,99.99
2018-02-21T02:18:57.974Z,99.99
2018-02-21T02:19:58.392Z,99.99
2018-02-21T02:20:58.812Z,99.99
2018-02-21T02:21:59.225Z,99.99
2018-02-21T02:22:59.645Z,99.99
2018-02-21T02:24:00.065Z,99.99
2018-02-21T02:25:00.480Z,99.99
2018-02-21T02:26:00.895Z,99.99
2018-02-21T02:27:01.313Z,99.99
2018-02-21T02:28:01.732Z,99.99
2018-02-21T02:29:02.156Z,99.99
2018-02-21T02:30:02.566Z,99.99
2018-02-21T02:31:03.027Z,99.99
2018-02-21T02:32:03.402Z,99.99
2018-02-21T02:33:03.830Z,99.99
2018-02-21T02:34:04.239Z,99.99
2018-02-21T02:35:04.656Z,99.99
2018-02-21T02:36:06.057Z,99.99
2018-02-21T02:37:05.489Z,99.99
2018-02-21T02:38:05.906Z,99.99
2018-02-21T02:39:06.326Z,99.99
2018-02-21T02:40:06.740Z,99.99
2018-02-21T02:41:07.157Z,99.99
2018-02-21T02:42:07.608Z,99.99
2018-02-21T02:44:42.097Z,99.99
2018-02-21T02:45:42.502Z,99.99
2018-02-21T02:47:37.099Z,99.99
2018-02-21T02:48:37.498Z,99.99
2018-02-21T02:50:33.070Z,99.99
2018-02-21T02:51:33.482Z,99.99
2018-02-21T02:53:28.068Z,99.99
2018-02-21T02:54:28.473Z,99.99
2018-02-21T02:56:24.035Z,99.99
2018-02-21T02:57:24.455Z,99.99
2018-02-21T02:58:24.872Z,99.99
2018-02-21T02:59:25.290Z,99.99
2018-02-21T03:00:25.705Z,99.99
2018-02-21T03:01:26.127Z,99.99
2018-02-21T03:02:26.545Z,99.99
2018-02-21T03:03:26.958Z,99.99
2018-02-21T03:04:27.376Z,99.99
2018-02-21T03:05:27.799Z,99.99
2018-02-21T03:06:28.212Z,99.99
2018-02-21T03:07:28.678Z,99.99
2018-02-21T03:08:29.048Z,99.99
2018-02-21T03:09:29.464Z,99.99
2018-02-21T03:10:29.883Z,99.99
2018-02-21T03:11:30.297Z,99.99
2018-02-21T03:12:30.714Z,99.99
2018-02-21T03:13:31.133Z,99.99
2018-02-21T03:14:31.549Z,99.99
2018-02-21T03:15:31.966Z,99.99
2018-02-21T03:16:32.409Z,99.99
2018-02-21T03:17:32.801Z,99.99
2018-02-21T03:18:33.220Z,99.99
2018-02-21T03:19:33.634Z,99.99
2018-02-21T03:20:34.052Z,99.99
2018-02-21T03:21:34.498Z,99.99
2018-02-21T03:22:34.902Z,99.99
2018-02-21T03:23:35.304Z,99.99
2018-02-21T03:24:35.720Z,99.99
2018-02-21T03:25:36.136Z,99.99
2018-02-21T03:26:36.558Z,99.99
2018-02-21T03:27:36.972Z,99.99
2018-02-21T03:28:37.389Z,99.99
2018-02-21T03:29:37.814Z,99.99
2018-02-21T03:30:38.227Z,99.99
2018-02-21T03:31:38.646Z,99.99
2018-02-21T03:32:39.060Z,99.99
2018-02-21T03:33:40.273Z,99.99
2018-02-21T03:34:39.906Z,99.99
2018-02-21T03:35:40.311Z,99.99
2018-02-21T03:36:40.728Z,99.99
2018-02-21T03:37:41.143Z,99.99
2018-02-21T03:38:41.564Z,99.99
2018-02-21T03:39:41.981Z,99.99
2018-02-21T03:40:42.397Z,99.99
2018-02-21T03:41:42.816Z,99.99
2018-02-21T03:42:43.235Z,99.99
2018-02-21T03:43:43.652Z,99.99
2018-02-21T03:44:44.072Z,99.99
2018-02-21T03:45:44.491Z,99.99
2018-02-21T03:46:44.899Z,99.99
2018-02-21T03:47:45.321Z,99.99
2018-02-21T03:48:45.739Z,99.99
2018-02-21T03:49:46.157Z,99.99
2018-02-21T03:50:46.575Z,99.99
2018-02-21T03:51:47.055Z,99.99
2018-02-21T03:52:47.404Z,99.99
2018-02-21T03:53:47.828Z,99.99
2018-02-21T03:54:48.241Z,99.99
2018-02-21T03:55:48.656Z,99.99
2018-02-21T03:56:49.073Z,99.99
2018-02-21T03:57:49.493Z,99.99
2018-02-21T03:58:49.909Z,99.99
2018-02-21T03:59:50.326Z,99.99
2018-02-21T04:00:50.755Z,99.99
2018-02-21T04:01:51.164Z,99.99
2018-02-21T04:02:51.583Z,99.99
2018-02-21T04:03:51.997Z,99.99
2018-02-21T04:04:52.416Z,99.99
2018-02-21T04:05:52.834Z,99.99
2018-02-21T04:06:53.252Z,99.99
2018-02-21T04:07:53.668Z,99.99
2018-02-21T04:08:54.084Z,99.99
2018-02-21T04:09:54.498Z,99.99
2018-02-21T04:10:54.924Z,99.99
2018-02-21T04:11:55.335Z,99.99
2018-02-21T04:12:55.751Z,99.99
2018-02-21T04:13:56.171Z,99.99
2018-02-21T04:14:56.586Z,99.99
2018-02-21T04:15:57.005Z,99.99
2018-02-21T04:16:57.420Z,99.99
2018-02-21T04:17:57.857Z,99.99
2018-02-21T04:18:58.258Z,99.99
2018-02-21T04:19:58.677Z,99.99
2018-02-21T04:20:59.091Z,99.99
2018-02-21T04:21:59.512Z,99.99
2018-02-21T04:22:59.926Z,99.99
2018-02-21T04:24:00.350Z,99.99
2018-02-21T04:25:00.760Z,99.99
2018-02-21T04:26:01.181Z,99.99
2018-02-21T04:27:01.598Z,99.99
2018-02-21T04:28:02.014Z,99.99
2018-02-21T04:29:02.430Z,99.99
2018-02-21T04:30:02.848Z,99.99
2018-02-21T04:31:03.293Z,99.99
2018-02-21T04:32:03.693Z,99.99
2018-02-21T04:33:04.105Z,99.99
2018-02-21T04:34:04.522Z,99.99
2018-02-21T04:35:04.942Z,99.99
2018-02-21T04:36:05.355Z,99.99
2018-02-21T04:37:05.773Z,99.99
2018-02-21T04:38:06.189Z,99.99
2018-02-21T04:39:06.606Z,99.99
2018-02-21T04:40:07.028Z,99.99
2018-02-21T04:41:07.439Z,99.99
2018-02-21T04:42:07.858Z,99.99
2018-02-21T04:43:08.275Z,99.99
2018-02-21T04:44:08.694Z,99.99
2018-02-21T04:45:09.109Z,99.99
2018-02-21T04:46:09.527Z,99.99
2018-02-21T04:47:09.944Z,99.99
2018-02-21T04:48:10.363Z,99.99
2018-02-21T04:49:10.782Z,99.99
2018-02-21T04:50:11.197Z,99.99
2018-02-21T04:51:11.615Z,99.99
2018-02-21T04:52:12.031Z,99.99
2018-02-21T04:53:12.448Z,99.99
2018-02-21T04:54:12.867Z,99.99
2018-02-21T04:55:13.285Z,99.99
2018-02-21T04:56:13.701Z,99.99
2018-02-21T04:57:14.118Z,99.99
2018-02-21T04:58:14.535Z,99.99
2018-02-21T04:59:14.967Z,99.99
2018-02-21T05:00:15.377Z,99.99
2018-02-21T05:01:15.794Z,99.99
2018-02-21T05:02:16.216Z,99.99
2018-02-21T05:03:16.629Z,99.99
2018-02-21T05:04:17.045Z,99.99
2018-02-21T05:05:17.470Z,99.99
2018-02-21T05:06:17.881Z,99.99
2018-02-21T05:07:18.296Z,99.99
2018-02-21T05:08:18.711Z,99.99
2018-02-21T05:09:19.129Z,99.99
2018-02-21T05:10:19.548Z,99.99
2018-02-21T05:11:19.962Z,99.99
2018-02-21T05:12:20.384Z,99.99
2018-02-21T05:13:20.796Z,99.99
2018-02-21T05:14:21.216Z,99.99
2018-02-21T05:15:21.632Z,99.99
2018-02-21T05:16:22.048Z,99.99
2018-02-21T05:17:22.465Z,99.99
2018-02-21T05:18:22.883Z,99.99
2018-02-21T05:19:23.301Z,99.99
2018-02-21T05:20:23.718Z,99.99
2018-02-21T05:21:24.134Z,99.99
2018-02-21T05:22:24.551Z,99.99
2018-02-21T05:23:24.969Z,99.99
2018-02-21T05:24:25.386Z,99.99
2018-02-21T05:25:25.802Z,99.99
2018-02-21T05:26:26.219Z,99.99
2018-02-21T05:27:26.653Z,99.99
2018-02-21T05:28:27.080Z,99.99
2018-02-21T05:29:27.472Z,99.99
2018-02-21T05:30:27.896Z,99.99
2018-02-21T05:31:28.311Z,99.99
2018-02-21T05:32:28.736Z,99.99
2018-02-21T05:33:29.180Z,99.99
2018-02-21T05:34:29.560Z,99.99
2018-02-21T05:35:29.977Z,99.99
2018-02-21T05:36:30.392Z,99.99
2018-02-21T05:37:30.812Z,99.99
2018-02-21T05:38:31.229Z,99.99
2018-02-21T05:39:31.647Z,99.99
2018-02-21T05:40:32.062Z,99.99
2018-02-21T05:41:32.500Z,99.99
2018-02-21T05:42:32.898Z,99.99
2018-02-21T05:43:33.312Z,99.99
2018-02-21T05:44:33.730Z,99.99
2018-02-21T05:45:34.147Z,99.99
2018-02-21T05:46:34.563Z,99.99
2018-02-21T05:47:34.980Z,99.99
2018-02-21T05:48:35.426Z,99.99
2018-02-21T05:49:35.817Z,99.99
2018-02-21T05:50:36.235Z,99.99
2018-02-21T05:51:36.648Z,99.99
2018-02-21T05:52:37.066Z,99.99
2018-02-21T05:53:37.485Z,99.99
2018-02-21T05:54:37.899Z,99.99
2018-02-21T05:55:38.316Z,99.99
2018-02-21T05:56:38.735Z,99.99
2018-02-21T05:57:39.150Z,99.99
2018-02-21T05:58:39.566Z,99.99
2018-02-21T05:59:39.983Z,99.99
2018-02-21T06:00:40.406Z,99.99
2018-02-21T06:01:40.817Z,99.99
2018-02-21T06:02:41.235Z,99.99
2018-02-21T06:03:41.652Z,99.99
2018-02-21T06:04:42.096Z,99.99
2018-02-21T06:05:42.488Z,99.99
2018-02-21T06:06:42.906Z,99.99
2018-02-21T06:07:43.324Z,99.99
2018-02-21T06:08:43.739Z,99.99
2018-02-21T06:09:44.162Z,99.99
2018-02-21T06:10:44.571Z,99.99
2018-02-21T06:11:44.988Z,99.99
2018-02-21T06:12:45.404Z,99.99
2018-02-21T06:13:45.821Z,99.99
2018-02-21T06:14:46.238Z,99.99
2018-02-21T06:15:46.667Z,99.99
2018-02-21T06:16:47.071Z,99.99
2018-02-21T06:17:47.489Z,99.99
2018-02-21T06:18:47.905Z,99.99
2018-02-21T06:19:48.323Z,99.99
2018-02-21T06:20:48.740Z,99.99
2018-02-21T06:21:49.157Z,99.99
2018-02-21T06:22:49.593Z,99.99
2018-02-21T06:23:49.992Z,99.99
2018-02-21T06:24:50.411Z,99.99
2018-02-21T06:25:50.826Z,99.99
2018-02-21T06:26:51.241Z,99.99
2018-02-21T06:27:51.657Z,99.99
2018-02-21T06:28:52.080Z,99.99
2018-02-21T06:29:52.495Z,99.99
2018-02-21T06:30:52.915Z,99.99
2018-02-21T06:31:53.326Z,99.99
2018-02-21T06:32:53.743Z,99.99
2018-02-21T06:33:54.158Z,99.99
2018-02-21T06:34:54.577Z,99.99
2018-02-21T06:35:55.009Z,99.99
2018-02-21T06:38:32.492Z,99.99
2018-02-21T06:39:32.859Z,99.99
2018-02-21T06:41:28.436Z,99.99
2018-02-21T06:42:28.825Z,99.99
2018-02-21T06:44:23.431Z,99.99
2018-02-21T06:45:23.880Z,99.99
2018-02-21T06:47:18.389Z,99.99
2018-02-21T06:48:18.806Z,99.99
2018-02-21T06:50:13.415Z,99.99
2018-02-21T06:51:13.806Z,99.99
2018-02-21T06:53:09.353Z,99.99
2018-02-21T06:54:09.776Z,99.99
2018-02-21T06:56:04.370Z,99.99
2018-02-21T06:57:04.775Z,99.99
2018-02-21T06:58:59.352Z,99.99
2018-02-21T06:59:59.777Z,99.99
2018-02-21T07:01:00.194Z,99.99
2018-02-21T07:02:00.610Z,99.99
2018-02-21T07:03:01.093Z,99.99
2018-02-21T07:04:01.445Z,99.99
2018-02-21T07:05:01.864Z,99.99
2018-02-21T07:06:02.290Z,99.99
2018-02-21T07:07:02.701Z,99.99
2018-02-21T07:08:03.115Z,99.99
2018-02-21T07:09:03.532Z,99.99
2018-02-21T07:10:04.002Z,99.99
2018-02-21T07:11:04.371Z,99.99
2018-02-21T07:12:04.791Z,99.99
2018-02-21T07:13:05.203Z,99.99
2018-02-21T07:14:05.670Z,99.99
2018-02-21T07:15:06.033Z,99.99
2018-02-21T07:16:06.460Z,99.99
2018-02-21T07:17:06.874Z,99.99
2018-02-21T07:18:07.291Z,99.99
2018-02-21T07:19:07.709Z,99.99
2018-02-21T07:20:08.126Z,99.99
2018-02-21T07:21:08.547Z,99.99
2018-02-21T07:22:08.962Z,99.99
2018-02-21T07:23:09.379Z,99.99
2018-02-21T07:24:09.799Z,99.99
2018-02-21T07:25:10.217Z,99.99
2018-02-21T07:26:10.635Z,99.99
2018-02-21T07:27:11.064Z,99.99
2018-02-21T07:28:11.473Z,99.99
2018-02-21T07:29:11.904Z,99.99
2018-02-21T07:30:12.318Z,99.99
2018-02-21T07:31:12.746Z,99.99
2018-02-21T07:32:13.148Z,99.99
2018-02-21T07:33:13.564Z,99.99
2018-02-21T07:34:13.985Z,99.99
2018-02-21T07:35:14.444Z,99.99
2018-02-21T07:36:14.807Z,99.99
2018-02-21T07:37:15.237Z,99.99
2018-02-21T07:38:15.655Z,99.99
2018-02-21T07:39:16.074Z,99.99
2018-02-21T07:40:16.493Z,99.99
2018-02-21T07:41:16.912Z,99.99
2018-02-21T07:42:17.331Z,99.99
2018-02-21T07:43:17.750Z,99.99
2018-02-21T07:44:18.172Z,99.99
2018-02-21T07:45:18.592Z,99.99
2018-02-21T07:46:19.008Z,99.99
2018-02-21T07:47:19.423Z,99.99
2018-02-21T07:48:19.844Z,99.99
2018-02-21T07:49:20.262Z,99.99
2018-02-21T07:50:20.684Z,99.99
2018-02-21T07:51:21.100Z,99.99
2018-02-21T07:52:21.519Z,99.99
2018-02-21T07:53:21.945Z,99.99
2018-02-21T07:54:22.356Z,99.99
2018-02-21T07:55:22.775Z,99.99
2018-02-21T07:56:23.199Z,99.99
2018-02-21T07:57:23.664Z,99.99
2018-02-21T07:58:24.039Z,99.99
2018-02-21T07:59:24.512Z,99.99
2018-02-21T08:00:24.889Z,99.99
2018-02-21T08:01:25.301Z,99.99
2018-02-21T08:02:25.712Z,99.99
2018-02-21T08:03:26.131Z,99.99
2018-02-21T08:04:26.550Z,99.99
2018-02-21T08:05:26.968Z,99.99
2018-02-21T08:06:27.390Z,99.99
2018-02-21T08:07:27.813Z,99.99
2018-02-21T08:08:28.228Z,99.99
2018-02-21T08:09:28.646Z,99.99
2018-02-21T08:10:29.068Z,99.99
2018-02-21T08:11:29.486Z,99.99
2018-02-21T08:12:29.909Z,99.99
2018-02-21T08:13:30.330Z,99.99
2018-02-21T08:14:30.748Z,99.99
2018-02-21T08:15:31.165Z,99.99
2018-02-21T08:16:31.584Z,99.99
2018-02-21T08:17:32.005Z,99.99
2018-02-21T08:18:32.428Z,99.99
2018-02-21T08:19:32.846Z,99.99
2018-02-21T08:20:33.324Z,99.99
2018-02-21T08:21:33.702Z,99.99
2018-02-21T08:22:34.108Z,99.99
2018-02-21T08:23:34.524Z,99.99
2018-02-21T08:24:34.944Z,99.99
2018-02-21T08:25:35.364Z,99.99
2018-02-21T08:26:35.790Z,99.99
2018-02-21T08:27:36.204Z,99.99
2018-02-21T08:28:36.624Z,99.99
2018-02-21T08:29:37.044Z,99.99
2018-02-21T08:30:37.464Z,99.99
2018-02-21T08:31:37.883Z,99.99
2018-02-21T08:32:38.304Z,99.99
2018-02-21T08:33:38.740Z,99.99
2018-02-21T08:34:39.153Z,99.99
2018-02-21T08:35:39.570Z,99.99
2018-02-21T08:36:39.983Z,99.99
2018-02-21T08:37:40.404Z,99.99
2018-02-21T08:38:40.823Z,99.99
2018-02-21T08:39:41.244Z,99.99
2018-02-21T08:40:41.720Z,99.99
2018-02-21T08:41:42.085Z,99.99
2018-02-21T08:42:42.512Z,99.99
2018-02-21T08:43:42.926Z,99.99
2018-02-21T08:44:43.360Z,99.99
2018-02-21T08:45:43.775Z,99.99
2018-02-21T08:46:44.190Z,99.99
2018-02-21T08:47:44.610Z,99.99
2018-02-21T08:48:45.031Z,99.99
2018-02-21T08:49:45.449Z,99.99
2018-02-21T08:50:45.868Z,99.99
2018-02-21T08:51:46.303Z,99.99
2018-02-21T08:52:46.710Z,99.99
2018-02-21T08:53:47.132Z,99.99
2018-02-21T08:54:47.551Z,99.99
2018-02-21T08:55:47.973Z,99.99
2018-02-21T08:56:48.396Z,99.99
2018-02-21T08:57:48.817Z,99.99
2018-02-21T08:58:49.275Z,99.99
2018-02-21T08:59:49.658Z,99.99
2018-02-21T09:00:50.101Z,99.99
2018-02-21T09:01:50.513Z,99.53
2018-02-21T09:02:50.924Z,98.35
2018-02-21T09:03:51.348Z,97.21
2018-02-21T09:04:51.772Z,95.98
2018-02-21T09:05:52.220Z,96.26
2018-02-21T09:06:52.646Z,96.12
2018-02-21T09:07:53.043Z,94.18
2018-02-21T09:08:53.471Z,93.65
2018-02-21T09:09:54.027Z,92.94
2018-02-21T09:10:54.321Z,91.38
2018-02-21T09:11:54.747Z,91.33
2018-02-21T09:12:55.173Z,89.14
2018-02-21T09:13:55.596Z,90.14
2018-02-21T09:14:56.024Z,92.14
2018-02-21T09:15:56.451Z,93.37
2018-02-21T09:16:56.877Z,88.29
2018-02-21T09:17:57.310Z,88.90
2018-02-21T09:18:57.736Z,88.61
2018-02-21T09:19:58.166Z,83.58
2018-02-21T09:20:58.590Z,81.14
2018-02-21T09:21:59.026Z,80.74
2018-02-21T09:22:59.449Z,81.87
2018-02-21T09:23:59.885Z,83.97
2018-02-21T09:25:00.338Z,83.53
2018-02-21T09:26:00.741Z,80.58
2018-02-21T09:27:01.172Z,80.02
2018-02-21T09:28:01.600Z,80.38
2018-02-21T09:29:02.043Z,78.88
2018-02-21T09:30:02.477Z,80.72
2018-02-21T09:31:02.898Z,79.79
2018-02-21T09:32:03.327Z,81.02
2018-02-21T09:33:03.758Z,83.68
2018-02-21T09:34:04.191Z,82.58
2018-02-21T09:35:04.623Z,81.02
2018-02-21T09:36:05.058Z,81.10
2018-02-21T09:37:05.489Z,79.05
2018-02-21T09:38:05.927Z,75.72
2018-02-21T09:39:06.356Z,74.62
2018-02-21T09:40:06.791Z,74.46
2018-02-21T09:41:07.226Z,73.41
2018-02-21T09:42:07.657Z,71.42
2018-02-21T09:43:08.122Z,70.97
2018-02-21T09:44:08.557Z,69.64
2018-02-21T09:45:08.971Z,68.75
2018-02-21T09:46:09.398Z,68.43
2018-02-21T09:47:09.834Z,70.62
2018-02-21T09:48:10.267Z,70.43
2018-02-21T09:49:10.722Z,69.15
2018-02-21T09:50:11.161Z,72.96
2018-02-21T09:51:11.578Z,73.25
2018-02-21T09:52:12.013Z,73.53
2018-02-21T09:53:12.450Z,71.53
2018-02-21T09:54:12.884Z,72.11
2018-02-21T09:55:13.346Z,72.77
2018-02-21T09:56:13.759Z,72.74
2018-02-21T09:57:14.199Z,74.48
2018-02-21T09:58:14.619Z,72.83
2018-02-21T09:59:15.066Z,72.58
2018-02-21T10:00:15.503Z,71.09
2018-02-21T10:01:15.950Z,70.14
2018-02-21T10:02:16.374Z,70.69
2018-02-21T10:03:16.809Z,69.89
2018-02-21T10:04:17.247Z,68.88
2018-02-21T10:05:17.690Z,65.55
2018-02-21T10:06:18.130Z,64.75
2018-02-21T10:07:18.575Z,65.61
2018-02-21T10:08:19.003Z,66.15
2018-02-21T10:09:19.432Z,65.33
2018-02-21T10:10:19.869Z,65.41
2018-02-21T10:11:20.316Z,68.18
2018-02-21T10:12:20.743Z,66.53
2018-02-21T10:13:21.180Z,65.61
2018-02-21T10:14:21.618Z,62.37
2018-02-21T10:15:22.059Z,66.39
2018-02-21T10:16:22.527Z,67.19
2018-02-21T10:17:22.930Z,66.11
2018-02-21T10:18:23.368Z,69.23
2018-02-21T10:19:23.834Z,65.48
2018-02-21T10:20:24.252Z,66.46
2018-02-21T10:21:24.681Z,70.10
2018-02-21T10:22:25.119Z,71.78
2018-02-21T10:23:25.559Z,69.44
2018-02-21T10:24:26.026Z,68.01
2018-02-21T10:25:26.430Z,67.98
2018-02-21T10:26:26.866Z,68.40
2018-02-21T10:27:27.304Z,67.82
2018-02-21T10:28:27.742Z,66.46
2018-02-21T10:29:28.176Z,63.89
2018-02-21T10:30:28.613Z,63.99
2018-02-21T10:31:29.049Z,62.78
2018-02-21T10:32:29.491Z,60.94
2018-02-21T10:33:29.926Z,61.38
2018-02-21T10:34:30.380Z,62.56
2018-02-21T10:35:30.794Z,63.04
2018-02-21T10:36:31.226Z,62.02
2018-02-21T10:37:31.685Z,61.19
2018-02-21T10:38:32.107Z,64.21
2018-02-21T10:39:32.555Z,63.39
2018-02-21T10:40:32.977Z,64.28
2018-02-21T10:41:33.451Z,63.60
2018-02-21T10:42:33.841Z,65.60
2018-02-21T10:43:34.316Z,66.77
2018-02-21T10:44:34.713Z,68.27
2018-02-21T10:45:35.153Z,67.07
2018-02-21T10:46:35.590Z,65.51
2018-02-21T10:47:36.026Z,61.25
2018-02-21T10:48:36.458Z,60.52
2018-02-21T10:49:36.936Z,59.79
2018-02-21T10:50:37.332Z,57.03
2018-02-21T10:51:37.769Z,56.10
2018-02-21T10:52:38.205Z,54.26
2018-02-21T10:53:38.676Z,55.08
2018-02-21T10:54:39.085Z,59.48
2018-02-21T10:55:39.517Z,61.61
2018-02-21T10:56:39.958Z,63.10
2018-02-21T10:57:40.391Z,64.34
2018-02-21T10:58:40.827Z,66.05
2018-02-21T10:59:41.261Z,68.04
2018-02-21T11:00:41.711Z,69.05
2018-02-21T11:01:42.164Z,70.19
2018-02-21T11:02:42.569Z,69.09
2018-02-21T11:03:43.000Z,68.67
2018-02-21T11:04:43.447Z,69.15
2018-02-21T11:05:43.897Z,69.81
2018-02-21T11:06:44.311Z,69.34
2018-02-21T11:07:44.748Z,69.05
2018-02-21T11:08:45.163Z,71.20
2018-02-21T11:09:45.594Z,71.62
2018-02-21T11:10:46.027Z,69.66
2018-02-21T11:11:46.458Z,68.80
2018-02-21T11:12:46.886Z,67.47
2018-02-21T11:13:47.352Z,66.77
2018-02-21T11:14:47.753Z,68.67
2018-02-21T11:15:48.177Z,69.53
2018-02-21T11:16:48.608Z,69.15
2018-02-21T11:17:49.039Z,68.23
2018-02-21T11:18:49.471Z,66.80
2018-02-21T11:19:49.901Z,66.14
2018-02-21T11:20:50.362Z,66.39
2018-02-21T11:21:50.757Z,66.30
2018-02-21T11:22:51.189Z,66.80
2018-02-21T11:23:51.625Z,66.30
2018-02-21T11:24:52.079Z,67.06
2018-02-21T11:25:52.475Z,67.44
2018-02-21T11:26:52.905Z,68.73
2018-02-21T11:27:53.333Z,68.77
2018-02-21T11:28:53.827Z,68.35
2018-02-21T11:29:54.212Z,69.93
2018-02-21T11:30:54.659Z,70.03
2018-02-21T11:31:55.050Z,71.13
2018-02-21T11:32:55.485Z,71.80
2018-02-21T11:33:55.901Z,71.51
2018-02-21T11:34:56.331Z,72.36
2018-02-21T11:35:56.757Z,73.12
2018-02-21T11:36:57.185Z,72.49
2018-02-21T11:37:57.645Z,72.21
2018-02-21T11:38:58.037Z,71.26
2018-02-21T11:39:58.478Z,70.82
2018-02-21T11:40:58.895Z,70.12
2018-02-21T11:41:59.319Z,69.40
2018-02-21T11:42:59.748Z,69.24
2018-02-21T11:44:00.170Z,68.07
2018-02-21T11:45:00.596Z,68.54
2018-02-21T11:46:01.024Z,69.21
2018-02-21T11:47:01.494Z,67.79
2018-02-21T11:48:01.921Z,67.69
2018-02-21T11:49:02.305Z,66.17
2018-02-21T11:50:02.744Z,65.22
2018-02-21T11:51:03.159Z,65.22
2018-02-21T11:52:03.586Z,65.03
2018-02-21T11:53:04.017Z,65.03
2018-02-21T11:54:04.445Z,64.84
2018-02-21T11:55:04.869Z,65.66
2018-02-21T11:56:05.294Z,66.23
2018-02-21T11:57:05.722Z,68.04
2018-02-21T11:58:06.150Z,67.85
2018-02-21T11:59:06.576Z,68.79
2018-02-21T12:00:07.006Z,68.51
2018-02-21T12:01:07.427Z,67.85
2018-02-21T12:02:07.855Z,68.23
2018-02-21T12:03:08.284Z,68.23
2018-02-21T12:04:08.708Z,66.61
2018-02-21T12:05:09.132Z,66.04
2018-02-21T12:06:09.561Z,65.95
2018-02-21T12:07:10.010Z,65.75
2018-02-21T12:08:10.410Z,65.19
2018-02-21T12:09:10.869Z,66.67
2018-02-21T12:10:11.262Z,68.00
2018-02-21T12:11:11.688Z,69.23
2018-02-21T12:12:12.111Z,69.71
2018-02-21T12:13:12.538Z,69.13
2018-02-21T12:14:12.969Z,68.85
2018-02-21T12:15:13.388Z,68.91
2018-02-21T12:16:13.813Z,69.96
2018-02-21T12:17:14.237Z,69.13
2018-02-21T12:18:14.678Z,69.33
2018-02-21T12:19:15.098Z,68.85
2018-02-21T12:20:15.511Z,69.01
2018-02-21T12:21:15.938Z,68.76
2018-02-21T12:22:16.361Z,68.85
2018-02-21T12:23:16.792Z,68.38
2018-02-21T12:24:17.209Z,67.81
2018-02-21T12:25:17.633Z,67.14
2018-02-21T12:26:18.058Z,66.61
2018-02-21T12:27:18.491Z,66.33
2018-02-21T12:28:18.907Z,66.42
2018-02-21T12:29:19.336Z,70.15
2018-02-21T12:30:19.794Z,73.27
2018-02-21T12:31:20.206Z,74.60
2018-02-21T12:32:20.631Z,74.41
2018-02-21T12:33:21.029Z,74.45
2018-02-21T12:34:21.458Z,74.64
2018-02-21T12:35:21.880Z,74.26
2018-02-21T12:36:22.301Z,74.45
2018-02-21T12:37:22.728Z,73.88
2018-02-21T12:38:23.153Z,70.94
2018-02-21T12:39:23.606Z,71.03
2018-02-21T12:40:24.005Z,73.37
2018-02-21T12:41:24.476Z,73.27
2018-02-21T12:42:24.845Z,73.79
2018-02-21T12:43:25.271Z,73.50
2018-02-21T12:44:25.694Z,72.93
2018-02-21T12:45:26.125Z,72.84
2018-02-21T12:46:26.557Z,71.32
2018-02-21T12:47:26.982Z,70.09
2018-02-21T12:48:27.414Z,67.94
2018-02-21T12:49:27.814Z,66.89
2018-02-21T12:50:28.241Z,66.89
2018-02-21T12:51:28.666Z,66.80
2018-02-21T12:52:29.089Z,66.48
2018-02-21T12:53:29.513Z,66.67
2018-02-21T12:54:29.946Z,67.33
2018-02-21T12:55:30.413Z,68.10
2018-02-21T12:56:30.801Z,68.66
2018-02-21T12:57:31.213Z,68.57
2018-02-21T12:58:31.643Z,68.38
2018-02-21T12:59:32.066Z,68.76
2018-02-21T13:00:32.477Z,68.19
2018-02-21T13:01:32.961Z,68.95
2018-02-21T13:02:33.340Z,68.48
2018-02-21T13:03:33.811Z,69.33
2018-02-21T13:04:34.177Z,68.66
2018-02-21T13:05:34.619Z,67.90
2018-02-21T13:06:35.037Z,67.81
2018-02-21T13:07:35.453Z,67.71
2018-02-21T13:08:35.879Z,66.48
2018-02-21T13:09:36.346Z,66.67
2018-02-21T13:10:36.718Z,66.61